Terminal Aerodrome Forecast
Issued by NWS

Home | Current Version | Previous Version | Text Only | Print | Product List | Glossary On
Versions: 1 2 3 4 5 6 7 8 9 10 11 12 13 14 15 16 17 18 19 20 21 22 23 24 25
000
FTUS43 KABR 200121 AAB
TAFMBG
TAF AMD
KMBG 200121Z 2001/2024 30020G27KT P6SM SCT002
     FM200200 30015G24KT P6SM VCSH BKN110 OVC150
     FM200600 32012KT P6SM BKN130
     FM201800 23014KT P6SM FEW250
     FM202300 18011KT P6SM FEW250=

USA.gov is the U.S. government's official web portal to all federal, state and local government web resources and services.